Time;durP1;ratioP1;P1;durP2;ratioP2;P2;SDS_P1;SDS_P2;PMS_P1;PMS_P2;Temp;Humidity;BMP_temperature;BMP_pressure;BME280_temperature;BME280_humidity;BME280_pressure;Samples;Min_cycle;Max_cycle;Signal;HPM_P1;HPM_P2
2023/02/25 00:00:18;;;;;;;8.00;2.50;;;5.90;99.90;;;;;;5039899;28;20174;-78
2023/02/25 00:02:51;;;;;;;7.10;2.47;;;5.60;99.90;;;;;;5038198;28;20447;-78
2023/02/25 00:05:17;;;;;;;7.00;2.43;;;5.70;99.90;;;;;;5038400;28;20460;-79
2023/02/25 00:07:44;;;;;;;6.30;1.87;;;5.70;99.90;;;;;;5036999;28;20790;-78
2023/02/25 00:10:12;;;;;;;4.53;1.90;;;5.60;99.90;;;;;;5036315;28;20413;-78
2023/02/25 00:12:38;;;;;;;8.20;2.73;;;5.70;99.90;;;;;;5036287;28;20464;-79
2023/02/25 00:15:05;;;;;;;7.70;1.93;;;5.80;99.90;;;;;;5036178;28;20453;-79
2023/02/25 00:17:32;;;;;;;6.03;2.30;;;5.60;99.90;;;;;;5035775;28;20918;-79
2023/02/25 00:19:58;;;;;;;7.93;2.60;;;5.60;99.90;;;;;;5037892;28;20441;-79
2023/02/25 00:22:25;;;;;;;11.07;3.00;;;5.60;99.90;;;;;;5037389;28;21015;-78
2023/02/25 00:24:54;;;;;;;13.17;2.60;;;5.80;99.90;;;;;;5012253;28;20845;-77
2023/02/25 00:27:21;;;;;;;13.50;2.27;;;5.60;99.90;;;;;;5037090;28;20491;-79
2023/02/25 00:29:46;;;;;;;8.83;2.50;;;5.70;99.90;;;;;;5036453;28;20449;-79
2023/02/25 00:32:12;;;;;;;5.80;2.40;;;5.70;99.90;;;;;;5020830;28;20435;-79
2023/02/25 00:34:38;;;;;;;9.67;2.67;;;5.60;99.90;;;;;;5038145;28;20190;-79
2023/02/25 00:37:04;;;;;;;9.13;2.70;;;5.60;99.90;;;;;;5040257;28;20182;-79
2023/02/25 00:39:41;;;;;;;4.57;1.90;;;5.80;99.90;;;;;;5039903;28;20195;-77
2023/02/25 00:42:13;;;;;;;10.70;2.90;;;5.70;99.90;;;;;;5032221;28;20829;-79
2023/02/25 00:44:39;;;;;;;4.63;2.30;;;5.70;99.90;;;;;;5036361;28;20475;-79
2023/02/25 00:47:05;;;;;;;6.70;2.50;;;5.60;99.90;;;;;;5038587;28;20417;-79
2023/02/25 00:49:32;;;;;;;12.60;3.40;;;5.70;99.90;;;;;;5037897;28;20962;-77
2023/02/25 00:51:58;;;;;;;9.63;2.53;;;5.50;99.90;;;;;;5038558;28;20463;-79
2023/02/25 00:54:24;;;;;;;7.17;2.43;;;5.60;99.90;;;;;;5036932;28;20420;-77
2023/02/25 00:56:49;;;;;;;12.63;2.63;;;5.50;99.90;;;;;;5036827;28;20409;-79
2023/02/25 00:59:15;;;;;;;7.27;3.27;;;5.50;99.90;;;;;;5038117;28;20482;-78
2023/02/25 01:01:41;;;;;;;6.10;2.63;;;5.50;99.90;;;;;;5036690;28;20579;-79
2023/02/25 01:04:08;;;;;;;9.50;2.33;;;5.40;99.90;;;;;;5038000;28;20217;-79
2023/02/25 01:06:35;;;;;;;8.43;2.80;;;5.60;99.90;;;;;;5036176;28;20171;-79
2023/02/25 01:09:04;;;;;;;16.77;3.20;;;5.70;99.90;;;;;;5037835;28;20424;-79
2023/02/25 01:11:35;;;;;;;6.47;2.00;;;5.60;99.90;;;;;;5036308;28;20504;-79
2023/02/25 01:14:06;;;;;;;14.57;3.70;;;5.80;99.90;;;;;;5037619;28;20441;-79
2023/02/25 01:16:34;;;;;;;10.03;2.83;;;5.70;99.90;;;;;;5037344;28;20426;-79
2023/02/25 01:19:10;;;;;;;7.30;2.23;;;5.60;99.90;;;;;;5036169;28;20446;-79
2023/02/25 01:21:45;;;;;;;9.70;2.20;;;5.60;99.90;;;;;;5036550;28;20413;-79
2023/02/25 01:24:38;;;;;;;8.07;2.87;;;5.60;99.90;;;;;;5031460;28;20452;-79
2023/02/25 01:27:04;;;;;;;9.13;3.77;;;5.60;99.90;;;;;;5031132;28;20512;-79
2023/02/25 01:29:39;;;;;;;11.60;2.80;;;5.60;99.90;;;;;;5036208;28;20934;-79
2023/02/25 01:32:07;;;;;;;9.07;3.50;;;5.50;99.90;;;;;;5037891;28;20427;-79
2023/02/25 01:34:33;;;;;;;6.53;2.83;;;5.50;99.90;;;;;;5037980;28;20433;-79
2023/02/25 01:36:59;;;;;;;9.53;2.83;;;5.70;99.90;;;;;;5037962;28;20957;-79
2023/02/25 01:39:26;;;;;;;7.87;2.60;;;5.80;99.90;;;;;;5040370;28;20432;-79
2023/02/25 01:41:55;;;;;;;7.60;2.40;;;5.70;99.90;;;;;;5036472;28;20594;-79
2023/02/25 01:44:24;;;;;;;9.10;2.73;;;5.70;99.90;;;;;;5037089;28;20489;-79
2023/02/25 01:46:51;;;;;;;12.17;3.57;;;5.50;99.90;;;;;;5035539;28;20504;-76
2023/02/25 01:49:34;;;;;;;8.93;2.43;;;5.70;99.90;;;;;;5034570;28;20508;-79
2023/02/25 01:52:20;;;;;;;7.30;2.33;;;5.60;99.90;;;;;;5036934;28;20922;-78
2023/02/25 01:54:49;;;;;;;7.83;2.97;;;5.50;99.90;;;;;;5037689;28;20906;-79
2023/02/25 01:57:17;;;;;;;5.50;2.40;;;5.70;99.90;;;;;;5037277;28;20429;-79
2023/02/25 01:59:44;;;;;;;7.33;2.37;;;5.70;99.90;;;;;;5036317;28;20580;-78
2023/02/25 02:02:18;;;;;;;7.00;2.80;;;5.50;99.90;;;;;;5036138;28;20906;-79
2023/02/25 02:04:48;;;;;;;10.93;2.93;;;5.50;99.90;;;;;;5036187;28;20551;-79
2023/02/25 02:07:15;;;;;;;6.93;2.60;;;5.60;99.90;;;;;;5035004;28;20429;-78
2023/02/25 02:09:54;;;;;;;9.37;2.53;;;5.60;99.90;;;;;;5035136;28;20467;-78
2023/02/25 02:12:30;;;;;;;5.90;2.70;;;5.70;99.90;;;;;;5018719;28;20538;-79
2023/02/25 02:14:58;;;;;;;9.80;2.77;;;5.60;99.90;;;;;;5029589;28;20408;-79
2023/02/25 02:17:29;;;;;;;5.20;2.73;;;5.50;99.90;;;;;;5035455;28;20424;-79
2023/02/25 02:20:15;;;;;;;6.53;2.30;;;5.70;99.90;;;;;;5028704;28;20431;-79
2023/02/25 02:23:08;;;;;;;8.93;2.80;;;5.50;99.90;;;;;;5034808;28;20472;-78
2023/02/25 02:25:51;;;;;;;9.90;2.80;;;5.50;99.90;;;;;;5036316;28;20464;-78
2023/02/25 02:28:32;;;;;;;11.47;2.70;;;5.40;99.90;;;;;;5034878;28;20421;-77
2023/02/25 02:31:25;;;;;;;12.00;2.50;;;5.50;99.90;;;;;;5018822;28;20426;-78
2023/02/25 02:34:09;;;;;;;9.27;2.17;;;5.60;99.90;;;;;;5034735;28;20514;-79
2023/02/25 02:37:16;;;;;;;13.33;2.93;;;5.40;99.90;;;;;;5034445;28;20428;-78
2023/02/25 02:39:52;;;;;;;6.17;2.10;;;5.60;99.90;;;;;;4977566;28;20485;-79
2023/02/25 02:42:41;;;;;;;8.53;2.70;;;5.50;99.90;;;;;;4978727;28;20449;-78
2023/02/25 02:45:48;;;;;;;7.13;2.20;;;5.40;99.90;;;;;;5016239;28;20465;-78
2023/02/25 02:48:24;;;;;;;8.40;2.30;;;5.70;99.90;;;;;;5036407;28;20925;-78
2023/02/25 02:51:01;;;;;;;6.70;2.13;;;5.60;99.90;;;;;;5019360;28;20413;-78
2023/02/25 02:53:41;;;;;;;8.10;2.80;;;5.60;99.90;;;;;;5036156;28;20440;-79
2023/02/25 02:56:11;;;;;;;8.00;2.00;;;5.70;99.90;;;;;;5035038;28;21276;-79
2023/02/25 02:58:47;;;;;;;10.10;2.63;;;5.70;99.90;;;;;;5018302;28;20475;-79
2023/02/25 03:01:19;;;;;;;7.23;2.20;;;5.80;99.90;;;;;;5034564;28;20969;-78
2023/02/25 03:03:52;;;;;;;8.37;2.47;;;5.70;99.90;;;;;;5035464;28;20447;-78
2023/02/25 03:06:22;;;;;;;9.77;3.30;;;5.30;99.90;;;;;;5031415;28;20437;-79
2023/02/25 03:09:01;;;;;;;8.97;2.57;;;5.40;99.90;;;;;;5033491;28;20770;-79
2023/02/25 03:11:26;;;;;;;5.17;1.93;;;5.30;99.90;;;;;;5034158;28;20918;-78
2023/02/25 03:13:53;;;;;;;6.57;2.33;;;5.50;99.90;;;;;;5035507;28;20547;-79
2023/02/25 03:16:33;;;;;;;9.27;2.40;;;5.60;99.90;;;;;;5033684;28;20186;-77
2023/02/25 03:19:18;;;;;;;17.00;3.03;;;5.60;99.90;;;;;;5035268;28;20421;-78
2023/02/25 03:21:53;;;;;;;6.93;3.00;;;5.60;99.90;;;;;;5034247;28;20418;-78
2023/02/25 03:24:28;;;;;;;10.30;2.83;;;5.70;99.90;;;;;;5035194;28;20798;-77
2023/02/25 03:26:54;;;;;;;5.67;2.70;;;5.50;99.90;;;;;;5040370;28;20458;-77
2023/02/25 03:29:24;;;;;;;10.17;2.80;;;5.50;99.90;;;;;;5044556;28;20445;-78
2023/02/25 03:31:55;;;;;;;14.50;3.47;;;5.50;99.90;;;;;;5042329;28;20417;-78
2023/02/25 03:34:27;;;;;;;7.60;3.27;;;5.50;99.90;;;;;;5036795;28;20416;-78
2023/02/25 03:37:01;;;;;;;9.63;3.37;;;5.40;99.90;;;;;;5037125;28;21008;-77
2023/02/25 03:39:39;;;;;;;5.47;2.73;;;5.40;99.90;;;;;;5034019;28;20405;-78
2023/02/25 03:42:10;;;;;;;7.33;2.60;;;5.40;99.90;;;;;;5030713;28;20447;-78
2023/02/25 03:44:42;;;;;;;8.63;2.80;;;5.60;99.90;;;;;;5036250;28;20462;-78
2023/02/25 03:47:09;;;;;;;6.20;2.73;;;5.70;99.90;;;;;;5036494;28;20402;-77
2023/02/25 03:49:47;;;;;;;8.50;2.67;;;5.50;99.90;;;;;;5037055;28;20485;-78
2023/02/25 03:52:18;;;;;;;12.43;2.90;;;5.40;99.90;;;;;;5036914;28;20432;-79
2023/02/25 03:54:53;;;;;;;14.20;3.43;;;5.60;99.90;;;;;;5034992;28;20449;-78
2023/02/25 03:57:23;;;;;;;6.80;2.20;;;5.40;99.90;;;;;;5036511;28;20448;-78
2023/02/25 03:59:52;;;;;;;7.70;3.43;;;5.60;99.90;;;;;;5035342;28;20432;-78
2023/02/25 04:02:19;;;;;;;7.30;2.33;;;5.60;99.90;;;;;;5036239;28;20508;-79
2023/02/25 04:04:45;;;;;;;11.23;2.57;;;5.60;99.90;;;;;;5037005;28;20599;-78
2023/02/25 04:07:10;;;;;;;8.23;2.40;;;5.70;99.90;;;;;;5036208;28;20454;-78
2023/02/25 04:09:38;;;;;;;8.03;2.20;;;5.60;99.90;;;;;;5019272;28;20178;-79
2023/02/25 04:12:05;;;;;;;9.33;2.90;;;5.50;99.90;;;;;;5033515;28;20186;-78
2023/02/25 04:14:30;;;;;;;8.20;2.40;;;5.50;99.90;;;;;;5031782;28;20520;-80
2023/02/25 04:16:56;;;;;;;6.87;2.83;;;5.50;99.90;;;;;;5034968;28;20471;-79
2023/02/25 04:19:22;;;;;;;6.83;2.50;;;5.50;99.90;;;;;;5032933;28;20179;-80
2023/02/25 04:21:47;;;;;;;6.83;3.73;;;5.50;99.90;;;;;;5034463;28;20261;-80
2023/02/25 04:24:13;;;;;;;7.90;2.80;;;5.50;99.90;;;;;;5032446;28;22392;-79
2023/02/25 04:26:39;;;;;;;9.30;2.80;;;5.40;99.90;;;;;;5032629;28;20209;-80
2023/02/25 04:29:04;;;;;;;8.13;3.47;;;5.50;99.90;;;;;;5032113;28;20174;-79
2023/02/25 04:31:30;;;;;;;16.17;4.63;;;5.30;99.90;;;;;;5034923;28;20799;-79
2023/02/25 04:33:56;;;;;;;5.70;2.60;;;5.40;99.90;;;;;;5036112;28;20298;-78
2023/02/25 04:36:33;;;;;;;12.33;2.50;;;5.50;99.90;;;;;;5033562;28;20190;-78
2023/02/25 04:39:02;;;;;;;9.20;3.00;;;5.40;99.90;;;;;;5038729;28;21139;-79
2023/02/25 04:41:33;;;;;;;6.53;2.53;;;5.40;99.90;;;;;;5032596;28;20433;-78
2023/02/25 04:43:59;;;;;;;12.90;2.70;;;5.50;99.90;;;;;;5033894;28;20445;-79
2023/02/25 04:46:25;;;;;;;9.70;2.50;;;5.50;99.90;;;;;;5035054;28;20456;-77
2023/02/25 04:48:51;;;;;;;10.77;2.50;;;5.30;99.90;;;;;;5033661;28;20414;-78
2023/02/25 04:51:17;;;;;;;9.20;2.80;;;5.40;99.90;;;;;;5032084;28;21103;-78
2023/02/25 04:53:45;;;;;;;7.13;2.63;;;5.50;99.90;;;;;;5033504;28;20453;-78
2023/02/25 04:56:11;;;;;;;13.77;3.27;;;5.60;99.90;;;;;;5034653;28;20224;-78
2023/02/25 04:58:37;;;;;;;11.00;1.83;;;5.50;99.90;;;;;;5032705;28;20421;-78
2023/02/25 05:01:05;;;;;;;6.90;2.60;;;5.60;99.90;;;;;;5034040;28;20420;-78
2023/02/25 05:03:32;;;;;;;9.97;2.67;;;5.50;99.90;;;;;;5033130;28;20217;-78
2023/02/25 05:05:58;;;;;;;9.60;3.10;;;5.50;99.90;;;;;;5033611;28;20475;-78
2023/02/25 05:08:24;;;;;;;10.13;3.20;;;5.50;99.90;;;;;;5033443;28;20492;-78
2023/02/25 05:10:50;;;;;;;10.07;2.60;;;5.50;99.90;;;;;;5032593;28;20496;-78
2023/02/25 05:13:17;;;;;;;7.10;2.37;;;5.50;99.90;;;;;;5031385;28;20520;-78
2023/02/25 05:15:42;;;;;;;7.50;2.10;;;5.50;99.90;;;;;;5032377;28;20428;-78
2023/02/25 05:18:08;;;;;;;7.63;2.47;;;5.60;99.90;;;;;;5032838;28;20425;-78
2023/02/25 05:20:42;;;;;;;9.87;2.60;;;5.50;99.90;;;;;;5033133;28;20413;-78
2023/02/25 05:23:09;;;;;;;6.60;2.20;;;5.40;99.90;;;;;;5032296;28;20201;-78
2023/02/25 05:25:40;;;;;;;10.23;3.17;;;5.60;99.90;;;;;;5033874;28;20962;-78
2023/02/25 05:28:10;;;;;;;9.00;2.23;;;5.60;99.90;;;;;;5032519;28;20425;-78
2023/02/25 05:30:37;;;;;;;9.57;2.23;;;5.50;99.90;;;;;;5031518;28;20417;-78
2023/02/25 05:33:04;;;;;;;7.70;2.43;;;5.50;99.90;;;;;;5032038;28;20433;-79
2023/02/25 05:35:31;;;;;;;8.40;2.50;;;5.60;99.90;;;;;;5031223;28;20516;-78
2023/02/25 05:37:57;;;;;;;9.37;2.73;;;5.50;99.90;;;;;;5015147;28;20494;-78
2023/02/25 05:40:24;;;;;;;10.70;2.80;;;5.50;99.90;;;;;;5034253;28;20443;-80
2023/02/25 05:42:50;;;;;;;7.40;2.30;;;5.30;99.90;;;;;;5035626;28;20512;-78
2023/02/25 05:45:16;;;;;;;8.67;2.33;;;5.30;99.90;;;;;;5035908;28;20824;-80
2023/02/25 05:47:43;;;;;;;10.73;2.53;;;5.60;99.90;;;;;;5035023;28;20224;-78
2023/02/25 05:50:10;;;;;;;7.37;2.00;;;5.40;99.90;;;;;;5035115;28;20413;-80
2023/02/25 05:52:35;;;;;;;11.93;1.93;;;5.40;99.90;;;;;;5035368;28;20440;-79
2023/02/25 05:55:02;;;;;;;6.57;2.10;;;5.60;99.90;;;;;;5035149;28;20524;-79
2023/02/25 05:57:28;;;;;;;7.73;2.50;;;5.50;99.90;;;;;;5035315;28;20175;-80
2023/02/25 05:59:53;;;;;;;8.50;2.20;;;5.60;99.90;;;;;;5035078;28;20483;-78
2023/02/25 06:02:19;;;;;;;7.00;1.80;;;5.40;99.90;;;;;;5036547;28;20974;-79
2023/02/25 06:04:46;;;;;;;7.70;2.80;;;5.50;99.90;;;;;;5036366;28;20715;-79
2023/02/25 06:07:13;;;;;;;7.80;3.50;;;5.70;99.90;;;;;;5036038;28;20276;-79
2023/02/25 06:09:39;;;;;;;9.20;3.57;;;5.50;99.90;;;;;;5018200;28;20413;-79
2023/02/25 06:12:04;;;;;;;14.43;2.80;;;5.50;99.90;;;;;;5035749;28;20425;-78
2023/02/25 06:14:30;;;;;;;10.80;3.00;;;5.60;99.90;;;;;;5032394;28;20436;-78
2023/02/25 06:16:56;;;;;;;14.60;3.07;;;5.50;99.90;;;;;;5027595;28;20429;-78
2023/02/25 06:19:25;;;;;;;11.37;2.20;;;5.60;99.90;;;;;;5033543;28;20413;-79
2023/02/25 06:21:54;;;;;;;8.10;2.27;;;5.60;99.90;;;;;;5037389;28;20193;-78
2023/02/25 06:24:20;;;;;;;13.63;2.57;;;5.40;99.90;;;;;;5036004;28;21027;-79
2023/02/25 06:26:46;;;;;;;9.87;1.87;;;5.60;99.90;;;;;;5019796;28;20443;-79
2023/02/25 06:29:12;;;;;;;7.83;2.37;;;5.30;99.90;;;;;;5036176;28;20421;-78
2023/02/25 06:31:38;;;;;;;6.67;2.70;;;5.50;99.90;;;;;;5037152;28;20189;-77
2023/02/25 06:34:04;;;;;;;11.03;2.80;;;5.50;99.90;;;;;;5034932;28;20449;-78
2023/02/25 06:36:30;;;;;;;8.47;2.80;;;5.70;99.90;;;;;;5033935;28;20174;-79
2023/02/25 06:38:56;;;;;;;12.70;3.37;;;5.70;99.90;;;;;;5054130;28;20424;-79
2023/02/25 06:41:22;;;;;;;8.33;2.73;;;5.60;99.90;;;;;;5053973;28;20443;-78
2023/02/25 06:43:51;;;;;;;11.57;3.60;;;5.40;99.90;;;;;;5054162;28;20505;-78
2023/02/25 06:46:20;;;;;;;10.77;2.80;;;5.70;99.90;;;;;;5041143;28;20461;-77
2023/02/25 06:48:46;;;;;;;14.37;3.20;;;5.50;99.90;;;;;;5035109;28;20421;-78
2023/02/25 06:51:13;;;;;;;7.30;3.00;;;5.60;99.90;;;;;;5034121;28;20516;-78
2023/02/25 06:53:41;;;;;;;11.93;2.50;;;5.60;99.90;;;;;;5034083;28;20601;-77
2023/02/25 06:56:08;;;;;;;8.63;2.50;;;5.50;99.90;;;;;;5035294;28;20420;-78
2023/02/25 06:58:34;;;;;;;13.40;2.97;;;5.70;99.90;;;;;;5034802;28;20420;-77
2023/02/25 07:01:00;;;;;;;10.60;3.30;;;5.60;99.90;;;;;;5033687;28;20424;-78
2023/02/25 07:03:26;;;;;;;15.90;2.90;;;5.60;99.90;;;;;;5033004;28;20432;-79
2023/02/25 07:05:51;;;;;;;11.10;2.80;;;5.50;99.90;;;;;;5035505;28;20215;-79
2023/02/25 07:08:17;;;;;;;7.57;2.97;;;5.30;99.90;;;;;;5035283;28;20424;-78
2023/02/25 07:10:43;;;;;;;11.60;4.27;;;5.40;99.90;;;;;;5034349;28;20179;-77
2023/02/25 07:13:09;;;;;;;11.70;2.40;;;5.50;99.90;;;;;;5032906;28;20191;-78
2023/02/25 07:15:35;;;;;;;11.67;3.00;;;5.70;99.90;;;;;;5033173;28;20209;-78
2023/02/25 07:18:02;;;;;;;9.40;2.57;;;5.60;99.90;;;;;;5034566;28;20460;-77
2023/02/25 07:20:28;;;;;;;15.17;3.47;;;5.50;99.90;;;;;;5033660;28;20420;-78
2023/02/25 07:22:54;;;;;;;5.83;2.37;;;5.60;99.90;;;;;;5016709;28;20459;-78
2023/02/25 07:25:20;;;;;;;9.47;2.40;;;5.50;99.90;;;;;;5022287;28;20469;-77
2023/02/25 07:27:46;;;;;;;8.43;2.10;;;5.50;99.90;;;;;;5024429;28;20178;-78
2023/02/25 07:30:13;;;;;;;10.00;3.10;;;5.70;99.90;;;;;;5010728;28;20418;-77
2023/02/25 07:32:42;;;;;;;10.50;3.60;;;5.80;99.90;;;;;;5013212;28;20229;-78
2023/02/25 07:35:09;;;;;;;14.83;3.07;;;5.60;99.90;;;;;;5012917;28;20422;-78
2023/02/25 07:37:34;;;;;;;12.03;3.73;;;5.60;99.90;;;;;;5012460;28;20455;-79
2023/02/25 07:40:00;;;;;;;6.50;3.30;;;5.60;99.90;;;;;;5055731;28;20970;-78
2023/02/25 07:42:27;;;;;;;7.03;2.90;;;5.70;99.90;;;;;;5053628;28;20201;-76
2023/02/25 07:44:53;;;;;;;9.93;3.20;;;5.40;99.90;;;;;;5052665;28;20214;-78
2023/02/25 07:47:19;;;;;;;6.50;2.30;;;5.70;99.90;;;;;;5054679;28;20419;-78
2023/02/25 07:49:45;;;;;;;7.47;2.90;;;5.50;99.90;;;;;;5034545;28;20194;-78
2023/02/25 07:52:11;;;;;;;10.63;2.43;;;5.70;99.90;;;;;;5029044;28;20437;-78
2023/02/25 07:54:36;;;;;;;12.00;2.90;;;5.50;99.90;;;;;;5025018;28;20258;-78
2023/02/25 07:57:02;;;;;;;12.30;2.87;;;5.50;99.90;;;;;;5023270;28;20187;-78
2023/02/25 07:59:28;;;;;;;7.97;2.93;;;5.40;99.90;;;;;;5024109;28;20183;-79
2023/02/25 08:01:54;;;;;;;8.60;2.73;;;5.50;99.90;;;;;;5023398;28;20170;-78
2023/02/25 08:04:19;;;;;;;14.20;2.87;;;5.70;99.90;;;;;;5025292;28;20937;-77
2023/02/25 08:06:46;;;;;;;12.03;2.90;;;5.70;99.90;;;;;;5025675;28;20177;-78
2023/02/25 08:09:12;;;;;;;8.93;2.90;;;5.40;99.90;;;;;;5034808;28;20239;-78
2023/02/25 08:11:38;;;;;;;13.20;2.70;;;5.40;99.90;;;;;;5032973;28;20539;-78
2023/02/25 08:14:04;;;;;;;8.10;2.70;;;5.70;99.90;;;;;;5034733;28;20246;-78
2023/02/25 08:16:31;;;;;;;17.20;3.37;;;5.80;99.90;;;;;;5035431;28;20447;-78
2023/02/25 08:18:58;;;;;;;10.93;3.20;;;5.60;99.90;;;;;;5050777;28;20433;-76
2023/02/25 08:21:24;;;;;;;7.07;2.83;;;5.90;99.90;;;;;;5056020;28;20456;-77
2023/02/25 08:23:51;;;;;;;13.60;3.77;;;5.70;99.90;;;;;;5058069;28;20457;-78
2023/02/25 08:26:17;;;;;;;8.30;3.40;;;5.60;99.90;;;;;;5048025;28;20503;-77
2023/02/25 08:28:44;;;;;;;10.80;3.03;;;5.80;99.90;;;;;;5045067;28;20409;-78
2023/02/25 08:31:10;;;;;;;10.17;2.60;;;5.70;99.90;;;;;;5035803;28;20413;-78
2023/02/25 08:33:39;;;;;;;6.63;3.33;;;5.80;99.90;;;;;;5035585;28;20433;-78
2023/02/25 08:36:08;;;;;;;7.77;3.10;;;5.60;99.90;;;;;;5019250;28;20421;-77
2023/02/25 08:38:36;;;;;;;11.03;4.90;;;5.80;99.90;;;;;;5052228;28;20456;-78
2023/02/25 08:41:01;;;;;;;10.80;3.73;;;5.90;99.90;;;;;;5057066;28;20428;-79
2023/02/25 08:43:27;;;;;;;9.40;2.73;;;5.90;99.90;;;;;;5056559;28;20466;-77
2023/02/25 08:45:55;;;;;;;7.80;3.03;;;6.00;99.90;;;;;;5026974;28;20214;-79
2023/02/25 08:48:21;;;;;;;10.67;2.53;;;6.00;99.90;;;;;;5035281;28;20628;-77
2023/02/25 08:50:47;;;;;;;14.20;3.30;;;5.90;99.90;;;;;;5036874;28;20417;-78
2023/02/25 08:53:13;;;;;;;10.80;2.77;;;6.10;99.90;;;;;;5034177;28;20489;-79
2023/02/25 08:55:38;;;;;;;10.23;3.63;;;6.00;99.90;;;;;;5036817;28;20217;-79
2023/02/25 08:58:05;;;;;;;8.93;2.87;;;6.00;99.90;;;;;;5036220;28;20284;-78
2023/02/25 09:00:30;;;;;;;6.73;2.47;;;6.10;99.90;;;;;;5036839;28;20190;-78
2023/02/25 09:02:56;;;;;;;9.70;2.47;;;6.40;99.90;;;;;;5035453;28;20452;-78
2023/02/25 09:05:23;;;;;;;10.13;2.93;;;6.20;99.90;;;;;;5037126;28;20237;-78
2023/02/25 09:07:49;;;;;;;8.40;2.57;;;6.10;99.90;;;;;;5036246;28;20550;-79
2023/02/25 09:10:16;;;;;;;8.77;2.13;;;6.20;99.90;;;;;;5036411;28;20474;-79
2023/02/25 09:12:43;;;;;;;7.83;2.90;;;6.30;99.90;;;;;;5035738;28;20465;-77
2023/02/25 09:15:10;;;;;;;8.50;2.80;;;6.30;99.90;;;;;;5035797;28;20848;-79
2023/02/25 09:17:37;;;;;;;5.27;2.73;;;6.30;99.90;;;;;;5030084;28;20437;-79
2023/02/25 09:20:06;;;;;;;7.57;2.83;;;6.30;99.90;;;;;;5035323;28;20747;-78
2023/02/25 09:22:37;;;;;;;4.27;2.53;;;6.20;99.90;;;;;;5035514;28;20499;-79
2023/02/25 09:25:03;;;;;;;4.83;2.13;;;6.10;99.90;;;;;;5035891;28;20989;-79
2023/02/25 09:27:29;;;;;;;6.97;2.30;;;6.00;99.90;;;;;;5035671;28;20505;-79
2023/02/25 09:29:54;;;;;;;6.10;2.60;;;6.00;99.90;;;;;;5018629;28;20479;-77
2023/02/25 09:32:21;;;;;;;10.67;5.20;;;6.20;99.90;;;;;;5034239;28;20289;-78
2023/02/25 09:34:50;;;;;;;7.20;3.17;;;6.20;99.90;;;;;;5036136;28;20228;-78
2023/02/25 09:37:18;;;;;;;5.83;3.23;;;6.10;99.90;;;;;;5041116;28;20420;-79
2023/02/25 09:39:44;;;;;;;6.50;3.60;;;6.20;99.90;;;;;;5056060;28;20420;-79
2023/02/25 09:42:23;;;;;;;10.90;4.73;;;6.10;99.90;;;;;;5054495;28;20524;-78
2023/02/25 09:44:56;;;;;;;9.87;3.07;;;6.20;99.90;;;;;;5055825;28;20525;-79
2023/02/25 09:47:24;;;;;;;7.33;3.47;;;6.20;99.90;;;;;;5055913;28;20417;-78
2023/02/25 09:49:55;;;;;;;7.50;3.50;;;6.10;99.90;;;;;;5056011;28;20412;-78
2023/02/25 09:52:31;;;;;;;9.03;3.30;;;6.20;99.90;;;;;;5055976;28;20447;-79
2023/02/25 09:55:34;;;;;;;6.73;3.43;;;6.10;99.90;;;;;;5048951;28;20440;-78
2023/02/25 09:58:07;;;;;;;7.20;2.70;;;6.10;99.90;;;;;;5027552;28;20436;-79
2023/02/25 10:01:08;;;;;;;5.30;2.37;;;6.20;99.90;;;;;;5034335;28;20417;-79
2023/02/25 10:03:46;;;;;;;6.50;2.50;;;6.10;99.90;;;;;;4992404;28;20514;-78
2023/02/25 10:06:32;;;;;;;7.10;2.20;;;6.10;99.90;;;;;;5036344;28;20457;-79
2023/02/25 10:09:18;;;;;;;7.17;2.60;;;6.30;99.90;;;;;;5034360;28;20417;-78
2023/02/25 10:11:58;;;;;;;7.90;2.60;;;6.40;99.90;;;;;;5033886;28;20467;-78
2023/02/25 10:14:43;;;;;;;7.80;2.60;;;6.50;99.90;;;;;;5032103;28;20471;-79
2023/02/25 10:17:31;;;;;;;6.40;2.93;;;6.50;99.90;;;;;;5033168;28;20898;-79
2023/02/25 10:20:22;;;;;;;5.73;3.47;;;6.50;99.90;;;;;;5032567;28;20417;-79
2023/02/25 10:23:06;;;;;;;7.80;2.60;;;6.50;99.90;;;;;;5032194;28;20437;-81
2023/02/25 10:25:38;;;;;;;2.53;2.00;;;6.70;99.90;;;;;;5032177;28;20598;-79
2023/02/25 10:28:09;;;;;;;5.53;2.27;;;6.60;99.90;;;;;;5032305;28;20516;-80
2023/02/25 10:30:56;;;;;;;3.20;2.07;;;6.40;99.90;;;;;;5032136;28;20468;-79
2023/02/25 10:33:24;;;;;;;2.70;1.90;;;6.30;99.90;;;;;;5031974;28;20913;-80
2023/02/25 10:36:10;;;;;;;4.77;1.90;;;6.60;99.90;;;;;;5015891;28;20913;-77
2023/02/25 10:38:46;;;;;;;2.77;1.40;;;6.30;99.90;;;;;;5033267;28;20424;-79
2023/02/25 10:41:13;;;;;;;2.87;1.43;;;6.20;99.90;;;;;;5032922;28;20453;-80
2023/02/25 10:43:39;;;;;;;2.10;0.93;;;6.10;99.90;;;;;;5031857;28;20435;-79
2023/02/25 10:46:23;;;;;;;1.67;1.03;;;6.30;99.90;;;;;;5033403;28;20977;-81
2023/02/25 10:49:24;;;;;;;1.40;1.00;;;6.50;99.90;;;;;;5015872;28;20961;-80
2023/02/25 10:51:57;;;;;;;2.20;1.10;;;6.90;99.90;;;;;;5032918;28;20819;-77
2023/02/25 10:54:23;;;;;;;6.63;1.80;;;6.80;99.90;;;;;;5015583;28;21053;-79
2023/02/25 10:56:49;;;;;;;1.43;0.90;;;6.70;99.90;;;;;;5014562;28;20972;-79
2023/02/25 10:59:38;;;;;;;3.10;1.10;;;6.60;99.90;;;;;;5031696;28;20401;-78
2023/02/25 11:02:17;;;;;;;2.43;1.20;;;6.50;99.90;;;;;;5033695;28;20175;-79
2023/02/25 11:04:44;;;;;;;1.53;1.03;;;6.50;99.90;;;;;;5032788;28;20456;-80
2023/02/25 11:07:34;;;;;;;2.80;0.93;;;6.70;99.90;;;;;;5032168;28;20516;-77
2023/02/25 11:10:18;;;;;;;2.57;1.27;;;6.90;99.90;;;;;;5031856;28;20435;-80
2023/02/25 11:12:46;;;;;;;4.20;1.20;;;6.90;99.90;;;;;;5033290;28;20456;-80
2023/02/25 11:15:24;;;;;;;3.67;1.43;;;7.00;99.90;;;;;;5031772;28;20940;-80
2023/02/25 11:17:55;;;;;;;4.20;1.50;;;6.90;99.90;;;;;;5033068;28;20738;-79
2023/02/25 11:20:27;;;;;;;4.03;1.47;;;7.00;99.90;;;;;;5032093;28;20425;-77
2023/02/25 11:22:55;;;;;;;9.17;1.83;;;6.80;99.90;;;;;;5033228;28;20567;-78
2023/02/25 11:25:39;;;;;;;2.90;1.20;;;6.90;99.90;;;;;;5033096;28;20483;-78
2023/02/25 11:28:16;;;;;;;4.80;1.20;;;6.90;99.90;;;;;;5031053;28;20409;-79
2023/02/25 11:30:43;;;;;;;6.83;1.43;;;7.00;99.90;;;;;;5030174;28;20401;-81
2023/02/25 11:33:25;;;;;;;4.60;1.53;;;7.10;99.90;;;;;;5031215;28;20487;-78
2023/02/25 11:35:58;;;;;;;4.60;1.53;;;7.10;99.90;;;;;;5032976;28;20436;-78
2023/02/25 11:38:28;;;;;;;4.27;2.27;;;7.30;99.90;;;;;;5042887;28;20427;-81
2023/02/25 11:40:55;;;;;;;6.27;1.90;;;7.30;99.90;;;;;;5014625;28;20413;-80
2023/02/25 11:43:34;;;;;;;6.77;1.70;;;7.40;99.90;;;;;;5031071;28;20441;-81
2023/02/25 11:46:07;;;;;;;3.07;1.50;;;7.50;99.90;;;;;;5032779;28;21120;-79
2023/02/25 11:48:53;;;;;;;4.53;1.77;;;7.70;99.90;;;;;;5031380;28;20420;-81
2023/02/25 11:51:26;;;;;;;4.20;1.50;;;7.80;99.90;;;;;;5014363;28;21364;-78
2023/02/25 11:53:57;;;;;;;8.53;2.00;;;7.90;99.90;;;;;;5035336;28;20441;-77
2023/02/25 11:56:49;;;;;;;3.47;1.33;;;7.90;99.90;;;;;;5036548;28;20409;-80
2023/02/25 11:59:21;;;;;;;3.10;1.10;;;7.80;99.90;;;;;;5034352;28;20438;-80
2023/02/25 12:01:49;;;;;;;2.30;1.10;;;7.60;99.90;;;;;;5034928;28;20416;-78
2023/02/25 12:04:37;;;;;;;6.00;1.30;;;7.30;99.90;;;;;;5034116;28;20425;-79
2023/02/25 12:07:36;;;;;;;3.70;1.50;;;7.30;99.90;;;;;;5034742;28;20420;-80
2023/02/25 12:10:20;;;;;;;3.70;1.67;;;7.30;99.90;;;;;;5034764;28;20437;-80
2023/02/25 12:12:55;;;;;;;3.50;1.30;;;7.30;99.90;;;;;;5034730;28;20812;-80
2023/02/25 12:15:52;;;;;;;5.00;1.60;;;7.30;99.90;;;;;;5034823;28;20512;-78
2023/02/25 12:18:39;;;;;;;5.17;1.90;;;7.30;99.90;;;;;;5034298;28;20425;-80
2023/02/25 12:21:46;;;;;;;5.00;1.83;;;7.10;99.90;;;;;;5018512;28;21003;-78
2023/02/25 12:24:33;;;;;;;3.93;1.50;;;6.90;99.90;;;;;;5025352;28;20457;-80
2023/02/25 12:27:36;;;;;;;6.33;1.60;;;6.90;99.90;;;;;;5033100;28;20425;-78
2023/02/25 12:30:30;;;;;;;6.70;1.63;;;7.10;99.90;;;;;;5034314;28;20397;-80
2023/02/25 12:33:15;;;;;;;6.03;1.53;;;7.00;99.90;;;;;;5030491;28;20501;-79
2023/02/25 12:36:02;;;;;;;3.40;1.70;;;7.10;99.90;;;;;;5026728;28;20484;-79
2023/02/25 12:39:05;;;;;;;3.67;1.70;;;7.30;99.90;;;;;;5047330;28;20415;-80
2023/02/25 12:41:38;;;;;;;2.97;1.50;;;7.40;99.90;;;;;;5054094;28;20411;-80
2023/02/25 12:44:29;;;;;;;3.60;1.87;;;7.60;99.90;;;;;;5054534;28;20439;-78
2023/02/25 12:47:14;;;;;;;6.83;1.63;;;7.70;99.90;;;;;;5054689;28;20507;-80
2023/02/25 12:50:10;;;;;;;3.43;1.43;;;7.90;99.90;;;;;;5053824;28;20415;-79
2023/02/25 12:52:48;;;;;;;4.03;1.40;;;7.90;99.30;;;;;;5033839;28;20823;-78
2023/02/25 12:55:52;;;;;;;4.60;1.63;;;7.80;99.70;;;;;;5035262;28;21111;-77
2023/02/25 12:58:32;;;;;;;5.33;1.50;;;7.80;99.90;;;;;;4997769;28;20967;-78
2023/02/25 13:01:35;;;;;;;4.10;1.30;;;7.60;97.60;;;;;;5017089;28;20417;-81
2023/02/25 13:04:23;;;;;;;5.63;1.70;;;7.60;99.60;;;;;;5013818;28;20440;-80
2023/02/25 13:07:18;;;;;;;2.10;1.57;;;7.70;98.70;;;;;;5037461;28;21121;-81
2023/02/25 13:09:50;;;;;;;2.40;1.53;;;7.70;98.50;;;;;;5002156;28;20415;-81
2023/02/25 13:12:47;;;;;;;3.87;1.53;;;7.80;99.50;;;;;;5020483;28;20448;-80
2023/02/25 13:15:39;;;;;;;2.70;1.10;;;8.00;99.30;;;;;;5036043;28;20846;-79
2023/02/25 13:18:18;;;;;;;7.83;1.70;;;8.00;97.50;;;;;;5035574;28;20416;-79
2023/02/25 13:21:19;;;;;;;5.97;1.50;;;8.10;98.90;;;;;;5031012;28;20433;-78